Time;durP1;ratioP1;P1;durP2;ratioP2;P2;SDS_P1;SDS_P2;PMS_P1;PMS_P2;Temp;Humidity;BMP_temperature;BMP_pressure;BME280_temperature;BME280_humidity;BME280_pressure;Samples;Min_cycle;Max_cycle;Signal;HPM_P1;HPM_P2
2022/07/28 00:00:42;;;;;;;0.52;0.20;;;;;;;;;;5047636;28;20460;-75
2022/07/28 00:03:07;;;;;;;0.55;0.32;;;;;;;;;;5047492;28;20033;-72
2022/07/28 00:05:32;;;;;;;0.30;0.30;;;;;;;;;;5048253;28;20083;-73
2022/07/28 00:08:00;;;;;;;0.30;0.20;;;;;;;;;;5045940;28;20099;-73
2022/07/28 00:10:28;;;;;;;0.20;0.20;;;;;;;;;;5051902;28;20040;-73
2022/07/28 00:12:53;;;;;;;0.22;0.20;;;;;;;;;;5052261;28;20036;-72
2022/07/28 00:15:21;;;;;;;0.65;0.47;;;;;;;;;;5053450;28;20043;-73
2022/07/28 00:17:46;;;;;;;0.13;0.13;;;;;;;;;;5052527;28;20104;-73
2022/07/28 00:20:11;;;;;;;0.15;0.15;;;;;;;;;;5053918;28;20053;-73
2022/07/28 00:22:41;;;;;;;0.20;0.20;;;;;;;;;;5033266;28;20037;-73
2022/07/28 00:25:09;;;;;;;0.00;0.00;;;;;;;;;;5052792;28;20032;-73
2022/07/28 00:27:35;;;;;;;0.00;0.00;;;;;;;;;;5052440;28;20540;-73
2022/07/28 00:30:02;;;;;;;0.40;0.40;;;;;;;;;;5052975;28;20051;-73
2022/07/28 00:32:30;;;;;;;0.52;0.17;;;;;;;;;;5057243;28;20040;-73
2022/07/28 00:34:55;;;;;;;0.15;0.10;;;;;;;;;;5055651;28;20481;-74
2022/07/28 00:37:20;;;;;;;0.00;0.00;;;;;;;;;;5055945;28;20032;-73
2022/07/28 00:39:46;;;;;;;1.35;0.73;;;;;;;;;;5050921;28;20033;-73
2022/07/28 00:42:19;;;;;;;0.40;0.40;;;;;;;;;;5056084;28;20029;-73
2022/07/28 00:44:44;;;;;;;0.40;0.30;;;;;;;;;;5055128;28;20388;-73
2022/07/28 00:47:10;;;;;;;0.85;0.85;;;;;;;;;;5038305;28;20312;-72
2022/07/28 00:49:39;;;;;;;3.10;0.30;;;;;;;;;;5055544;28;20047;-73
2022/07/28 00:52:08;;;;;;;1.45;0.75;;;;;;;;;;5057423;28;20024;-73
2022/07/28 00:54:34;;;;;;;0.00;0.00;;;;;;;;;;5051856;28;20045;-73
2022/07/28 00:56:59;;;;;;;3.63;0.47;;;;;;;;;;5055959;28;20056;-73
2022/07/28 00:59:27;;;;;;;0.10;0.10;;;;;;;;;;5056824;28;20036;-74
2022/07/28 01:01:53;;;;;;;0.05;0.05;;;;;;;;;;5057105;28;20024;-72
2022/07/28 01:04:19;;;;;;;0.28;0.28;;;;;;;;;;5056287;28;20021;-72
2022/07/28 01:06:54;;;;;;;0.68;0.50;;;;;;;;;;5055614;28;20032;-74
2022/07/28 01:09:35;;;;;;;0.13;0.13;;;;;;;;;;5055110;28;20044;-73
2022/07/28 01:12:32;;;;;;;0.65;0.25;;;;;;;;;;5054202;28;20083;-73
2022/07/28 01:15:18;;;;;;;0.10;0.10;;;;;;;;;;4979117;28;20465;-73
2022/07/28 01:17:44;;;;;;;0.30;0.30;;;;;;;;;;5055618;28;20036;-73
2022/07/28 01:20:11;;;;;;;0.85;0.32;;;;;;;;;;5049004;28;20435;-72
2022/07/28 01:22:40;;;;;;;2.13;0.17;;;;;;;;;;5056490;28;20032;-73
2022/07/28 01:25:11;;;;;;;0.10;0.10;;;;;;;;;;5053884;28;20453;-74
2022/07/28 01:27:49;;;;;;;0.85;0.63;;;;;;;;;;5056487;28;20095;-73
2022/07/28 01:30:32;;;;;;;0.10;0.10;;;;;;;;;;5056103;28;20577;-74
2022/07/28 01:33:08;;;;;;;0.68;0.47;;;;;;;;;;5037228;28;20104;-73
2022/07/28 01:35:45;;;;;;;0.40;0.28;;;;;;;;;;5054972;28;20037;-73
2022/07/28 01:38:11;;;;;;;0.10;0.10;;;;;;;;;;5054852;28;20068;-73
2022/07/28 01:40:38;;;;;;;0.10;0.10;;;;;;;;;;5055941;28;20056;-73
2022/07/28 01:43:06;;;;;;;0.10;0.05;;;;;;;;;;5027325;28;20063;-73
2022/07/28 01:45:32;;;;;;;0.20;0.20;;;;;;;;;;5055407;28;20025;-73
2022/07/28 01:48:21;;;;;;;0.22;0.22;;;;;;;;;;5054839;28;20128;-73
2022/07/28 01:50:48;;;;;;;0.13;0.13;;;;;;;;;;4952858;29;20123;-74
2022/07/28 01:53:15;;;;;;;0.40;0.40;;;;;;;;;;4921818;29;20043;-73
2022/07/28 01:55:43;;;;;;;0.10;0.10;;;;;;;;;;4938604;29;20058;-73
2022/07/28 01:58:08;;;;;;;1.67;0.20;;;;;;;;;;4940315;29;20045;-73
2022/07/28 02:00:37;;;;;;;0.30;0.30;;;;;;;;;;4937770;29;20039;-73
2022/07/28 02:03:05;;;;;;;0.10;0.10;;;;;;;;;;4953071;29;20422;-73
2022/07/28 02:05:32;;;;;;;0.20;0.20;;;;;;;;;;4952998;29;20054;-74
2022/07/28 02:08:02;;;;;;;0.65;0.20;;;;;;;;;;4922816;29;20118;-73
2022/07/28 02:10:28;;;;;;;0.32;0.20;;;;;;;;;;4937722;29;20050;-73
2022/07/28 02:12:57;;;;;;;1.75;0.32;;;;;;;;;;4952744;29;20015;-73
2022/07/28 02:15:26;;;;;;;1.65;0.70;;;;;;;;;;4938602;29;20488;-73
2022/07/28 02:17:52;;;;;;;0.15;0.15;;;;;;;;;;4940086;29;20054;-73
2022/07/28 02:20:17;;;;;;;0.55;0.40;;;;;;;;;;4937069;29;20097;-73
2022/07/28 02:22:44;;;;;;;0.38;0.30;;;;;;;;;;4938056;29;20035;-72
2022/07/28 02:25:10;;;;;;;0.20;0.20;;;;;;;;;;4938050;29;20049;-73
2022/07/28 02:27:38;;;;;;;3.92;0.57;;;;;;;;;;4987732;28;20032;-72
2022/07/28 02:30:11;;;;;;;0.25;0.10;;;;;;;;;;5053285;28;20432;-76
2022/07/28 02:32:54;;;;;;;0.43;0.10;;;;;;;;;;5050081;28;20576;-76
2022/07/28 02:35:32;;;;;;;0.60;0.52;;;;;;;;;;5053347;28;20140;-76
2022/07/28 02:38:00;;;;;;;0.30;0.22;;;;;;;;;;5048675;28;20055;-77
2022/07/28 02:40:29;;;;;;;0.85;0.30;;;;;;;;;;5038267;28;20399;-77
2022/07/28 02:42:57;;;;;;;0.30;0.13;;;;;;;;;;5053801;28;20489;-78
2022/07/28 02:45:25;;;;;;;0.10;0.10;;;;;;;;;;5053246;28;20040;-79
2022/07/28 02:47:55;;;;;;;0.22;0.20;;;;;;;;;;5053572;28;20029;-77
2022/07/28 02:50:22;;;;;;;0.00;0.00;;;;;;;;;;5053037;28;20438;-79
2022/07/28 02:52:51;;;;;;;0.10;0.10;;;;;;;;;;5053580;28;20035;-77
2022/07/28 02:55:20;;;;;;;0.00;0.00;;;;;;;;;;5054157;28;20493;-77
2022/07/28 02:57:46;;;;;;;1.55;0.20;;;;;;;;;;5051059;28;20033;-78
2022/07/28 03:00:15;;;;;;;0.65;0.30;;;;;;;;;;5030162;28;20030;-78
2022/07/28 03:02:45;;;;;;;0.45;0.25;;;;;;;;;;5054390;28;20033;-78
2022/07/28 03:05:13;;;;;;;0.80;0.65;;;;;;;;;;5052747;28;20033;-78
2022/07/28 03:07:38;;;;;;;0.30;0.17;;;;;;;;;;5052643;28;20036;-78
2022/07/28 03:10:04;;;;;;;6.80;1.10;;;;;;;;;;5052991;28;20041;-76
2022/07/28 03:12:29;;;;;;;0.70;0.10;;;;;;;;;;5054835;28;20183;-78
2022/07/28 03:14:55;;;;;;;2.20;1.08;;;;;;;;;;5052455;28;20469;-77
2022/07/28 03:17:23;;;;;;;0.60;0.60;;;;;;;;;;5054673;28;20024;-77
2022/07/28 03:19:48;;;;;;;0.63;0.43;;;;;;;;;;5052690;28;20025;-78
2022/07/28 03:22:16;;;;;;;3.28;0.20;;;;;;;;;;5048090;28;20043;-77
2022/07/28 03:24:44;;;;;;;0.77;0.28;;;;;;;;;;5054102;28;20116;-77
2022/07/28 03:27:31;;;;;;;1.67;0.47;;;;;;;;;;5053057;28;20021;-76
2022/07/28 03:30:05;;;;;;;0.40;0.40;;;;;;;;;;5052847;28;20025;-76
2022/07/28 03:32:34;;;;;;;0.20;0.10;;;;;;;;;;5035931;28;20106;-76
2022/07/28 03:34:59;;;;;;;1.00;0.57;;;;;;;;;;5052918;28;20025;-76
2022/07/28 03:37:32;;;;;;;1.13;0.30;;;;;;;;;;5051245;28;20021;-76
2022/07/28 03:39:58;;;;;;;0.20;0.20;;;;;;;;;;5053127;28;20059;-76
2022/07/28 03:42:25;;;;;;;1.08;0.60;;;;;;;;;;5049158;28;20032;-77
2022/07/28 03:44:50;;;;;;;0.45;0.20;;;;;;;;;;5051324;28;20103;-77
2022/07/28 03:47:20;;;;;;;0.28;0.20;;;;;;;;;;5053166;28;20488;-78
2022/07/28 03:49:46;;;;;;;0.70;0.70;;;;;;;;;;5053213;28;20043;-77
2022/07/28 03:52:11;;;;;;;2.95;0.17;;;;;;;;;;5053834;28;20364;-76
2022/07/28 03:54:37;;;;;;;0.82;0.38;;;;;;;;;;5052515;28;20020;-78
2022/07/28 03:57:04;;;;;;;1.40;0.57;;;;;;;;;;5053793;28;20033;-78
2022/07/28 03:59:29;;;;;;;0.70;0.25;;;;;;;;;;5052099;28;20025;-79
2022/07/28 04:01:57;;;;;;;0.32;0.22;;;;;;;;;;5050448;28;20484;-79
2022/07/28 04:04:23;;;;;;;0.50;0.40;;;;;;;;;;5052996;28;20024;-78
2022/07/28 04:06:48;;;;;;;0.38;0.30;;;;;;;;;;5055489;28;20174;-79
2022/07/28 04:09:14;;;;;;;0.43;0.38;;;;;;;;;;5049982;28;20043;-79
2022/07/28 04:11:40;;;;;;;0.10;0.10;;;;;;;;;;5055013;28;20025;-78
2022/07/28 04:14:05;;;;;;;0.50;0.50;;;;;;;;;;5057674;28;20031;-78
2022/07/28 04:16:34;;;;;;;1.35;0.20;;;;;;;;;;5052538;28;20029;-79
2022/07/28 04:18:59;;;;;;;0.20;0.20;;;;;;;;;;5056133;28;20025;-79
2022/07/28 04:21:24;;;;;;;0.00;0.00;;;;;;;;;;5057047;28;20358;-79
2022/07/28 04:23:50;;;;;;;0.10;0.10;;;;;;;;;;5057556;28;20386;-79
2022/07/28 04:26:18;;;;;;;0.30;0.30;;;;;;;;;;5056475;28;20362;-79
2022/07/28 04:28:46;;;;;;;0.82;0.60;;;;;;;;;;5056724;28;20028;-79
2022/07/28 04:31:12;;;;;;;0.38;0.20;;;;;;;;;;5056055;28;20550;-76
2022/07/28 04:33:38;;;;;;;0.25;0.25;;;;;;;;;;5054519;28;20053;-77
2022/07/28 04:36:05;;;;;;;0.30;0.30;;;;;;;;;;5062704;28;20029;-77
2022/07/28 04:38:31;;;;;;;0.15;0.15;;;;;;;;;;5055853;28;20622;-77
2022/07/28 04:40:57;;;;;;;0.22;0.08;;;;;;;;;;5057375;28;20076;-76
2022/07/28 04:43:27;;;;;;;0.75;0.60;;;;;;;;;;5056323;28;20110;-77
2022/07/28 04:45:55;;;;;;;0.25;0.20;;;;;;;;;;5055881;28;20044;-76
2022/07/28 04:48:22;;;;;;;4.03;0.35;;;;;;;;;;5056647;28;20060;-75
2022/07/28 04:50:48;;;;;;;0.68;0.30;;;;;;;;;;5054538;28;20021;-75
2022/07/28 04:53:18;;;;;;;0.30;0.30;;;;;;;;;;5055586;28;20312;-75
2022/07/28 04:55:46;;;;;;;2.00;0.45;;;;;;;;;;5056740;28;20025;-76
2022/07/28 04:58:11;;;;;;;2.67;1.05;;;;;;;;;;5057376;28;20056;-77
2022/07/28 05:00:37;;;;;;;1.23;0.77;;;;;;;;;;5060356;28;20044;-76
2022/07/28 05:03:03;;;;;;;0.60;0.30;;;;;;;;;;5052333;28;20025;-75
2022/07/28 05:05:31;;;;;;;1.85;0.60;;;;;;;;;;5055426;28;20427;-76
2022/07/28 05:07:56;;;;;;;0.13;0.13;;;;;;;;;;5057071;28;20039;-76
2022/07/28 05:10:24;;;;;;;0.40;0.30;;;;;;;;;;5056403;28;20124;-76
2022/07/28 05:12:51;;;;;;;0.68;0.50;;;;;;;;;;5057091;28;20434;-76
2022/07/28 05:15:16;;;;;;;0.45;0.45;;;;;;;;;;5053639;28;20112;-76
2022/07/28 05:17:44;;;;;;;1.88;0.43;;;;;;;;;;5051407;28;20415;-77
2022/07/28 05:20:12;;;;;;;1.08;0.40;;;;;;;;;;5055953;28;20100;-77
2022/07/28 05:22:45;;;;;;;1.25;0.28;;;;;;;;;;5050841;28;20033;-76
2022/07/28 05:25:19;;;;;;;0.20;0.20;;;;;;;;;;5054506;28;20020;-77
2022/07/28 05:27:45;;;;;;;0.25;0.25;;;;;;;;;;5051256;28;20032;-76
2022/07/28 05:30:10;;;;;;;1.15;0.52;;;;;;;;;;5053258;28;20103;-76
2022/07/28 05:32:38;;;;;;;0.52;0.40;;;;;;;;;;5055720;28;20107;-76
2022/07/28 05:35:04;;;;;;;0.17;0.17;;;;;;;;;;5056683;28;20631;-76
2022/07/28 05:37:34;;;;;;;0.50;0.45;;;;;;;;;;5053774;28;20056;-77
2022/07/28 05:40:01;;;;;;;0.13;0.13;;;;;;;;;;5056233;28;20469;-77
2022/07/28 05:42:28;;;;;;;0.55;0.30;;;;;;;;;;5056198;28;20393;-76
2022/07/28 05:44:53;;;;;;;0.47;0.40;;;;;;;;;;5055008;28;20324;-77
2022/07/28 05:47:19;;;;;;;1.13;0.55;;;;;;;;;;5054826;28;20047;-77
2022/07/28 05:49:44;;;;;;;0.10;0.10;;;;;;;;;;5052302;28;20389;-77
2022/07/28 05:52:09;;;;;;;0.47;0.30;;;;;;;;;;5055885;28;20032;-76
2022/07/28 05:54:35;;;;;;;0.63;0.30;;;;;;;;;;5055689;28;20074;-76
2022/07/28 05:57:00;;;;;;;1.67;1.05;;;;;;;;;;5054297;28;20025;-77
2022/07/28 05:59:25;;;;;;;0.50;0.40;;;;;;;;;;5054901;28;20032;-78
2022/07/28 06:01:51;;;;;;;4.38;0.43;;;;;;;;;;5054334;28;20021;-77
2022/07/28 06:04:16;;;;;;;1.38;0.50;;;;;;;;;;5055110;28;20338;-77
2022/07/28 06:06:41;;;;;;;0.90;0.63;;;;;;;;;;5055156;28;20426;-77
2022/07/28 06:09:07;;;;;;;3.42;0.88;;;;;;;;;;5052878;28;20522;-76
2022/07/28 06:11:32;;;;;;;0.47;0.47;;;;;;;;;;5053713;28;20025;-76
2022/07/28 06:13:57;;;;;;;0.40;0.30;;;;;;;;;;5048595;28;20101;-78
2022/07/28 06:16:23;;;;;;;0.52;0.30;;;;;;;;;;5047586;28;20040;-80
2022/07/28 06:18:51;;;;;;;3.30;1.45;;;;;;;;;;5053287;28;20021;-79
2022/07/28 06:21:19;;;;;;;0.45;0.28;;;;;;;;;;5046872;28;20045;-79
2022/07/28 06:23:44;;;;;;;0.65;0.47;;;;;;;;;;5055446;28;20021;-78
2022/07/28 06:26:10;;;;;;;2.50;0.45;;;;;;;;;;5053954;28;20350;-79
2022/07/28 06:28:38;;;;;;;2.30;0.52;;;;;;;;;;5054825;28;20036;-79
2022/07/28 06:31:03;;;;;;;0.70;0.40;;;;;;;;;;5032901;28;20698;-80
2022/07/28 06:33:30;;;;;;;1.30;1.20;;;;;;;;;;5052011;28;20025;-76
2022/07/28 06:35:59;;;;;;;1.45;0.30;;;;;;;;;;5054008;28;20454;-77
2022/07/28 06:38:24;;;;;;;1.20;0.52;;;;;;;;;;5055053;28;20024;-78
2022/07/28 06:40:49;;;;;;;0.15;0.13;;;;;;;;;;5044999;28;20362;-76
2022/07/28 06:43:15;;;;;;;2.20;0.65;;;;;;;;;;5030723;28;20029;-78
2022/07/28 06:45:40;;;;;;;1.80;0.70;;;;;;;;;;5048183;28;20035;-77
2022/07/28 06:48:08;;;;;;;0.30;0.30;;;;;;;;;;5052235;28;20046;-76
2022/07/28 06:50:35;;;;;;;0.30;0.30;;;;;;;;;;5053063;28;20024;-77
2022/07/28 06:53:00;;;;;;;1.20;0.63;;;;;;;;;;5052292;28;20017;-77
2022/07/28 06:55:26;;;;;;;0.30;0.30;;;;;;;;;;5054190;28;20031;-78
2022/07/28 06:57:54;;;;;;;1.35;0.35;;;;;;;;;;5053529;28;20025;-78
2022/07/28 07:00:20;;;;;;;1.45;0.40;;;;;;;;;;5054579;28;20032;-78
2022/07/28 07:02:49;;;;;;;0.45;0.45;;;;;;;;;;5054387;28;20033;-78
2022/07/28 07:05:15;;;;;;;0.32;0.30;;;;;;;;;;5055145;28;20032;-79
2022/07/28 07:07:40;;;;;;;0.25;0.17;;;;;;;;;;5053418;28;20025;-78
2022/07/28 07:10:06;;;;;;;0.20;0.20;;;;;;;;;;5054615;28;20021;-77
2022/07/28 07:12:33;;;;;;;0.38;0.30;;;;;;;;;;5055216;28;20108;-78
2022/07/28 07:14:59;;;;;;;0.15;0.15;;;;;;;;;;5054520;28;20031;-77
2022/07/28 07:17:24;;;;;;;2.33;0.70;;;;;;;;;;5054865;28;20017;-76
2022/07/28 07:19:49;;;;;;;0.20;0.20;;;;;;;;;;5054595;28;20086;-78
2022/07/28 07:22:15;;;;;;;2.10;0.50;;;;;;;;;;5053760;28;20496;-76
2022/07/28 07:24:44;;;;;;;0.70;0.30;;;;;;;;;;5054503;28;20025;-77
2022/07/28 07:27:09;;;;;;;4.28;0.70;;;;;;;;;;5053457;28;20442;-77
2022/07/28 07:29:35;;;;;;;1.00;0.50;;;;;;;;;;5053953;28;20024;-77
2022/07/28 07:32:00;;;;;;;0.20;0.20;;;;;;;;;;5053078;28;20485;-77
2022/07/28 07:34:25;;;;;;;0.10;0.10;;;;;;;;;;5054408;28;20025;-77
2022/07/28 07:36:51;;;;;;;0.47;0.45;;;;;;;;;;5053694;28;20358;-77
2022/07/28 07:39:16;;;;;;;1.08;0.38;;;;;;;;;;5052452;28;20032;-77
2022/07/28 07:41:42;;;;;;;3.60;0.22;;;;;;;;;;5053021;28;20024;-76
2022/07/28 07:44:10;;;;;;;0.93;0.40;;;;;;;;;;5050633;28;20021;-76
2022/07/28 07:46:38;;;;;;;0.17;0.17;;;;;;;;;;5053094;28;20316;-76
2022/07/28 07:49:04;;;;;;;0.40;0.30;;;;;;;;;;5054329;28;20044;-75
2022/07/28 07:51:29;;;;;;;0.65;0.20;;;;;;;;;;5053477;28;20021;-77
2022/07/28 07:53:54;;;;;;;0.20;0.13;;;;;;;;;;5051503;28;20112;-75
2022/07/28 07:56:22;;;;;;;0.17;0.17;;;;;;;;;;5052567;28;20044;-76
2022/07/28 07:58:50;;;;;;;0.35;0.20;;;;;;;;;;5054147;28;20079;-75
2022/07/28 08:01:15;;;;;;;0.20;0.20;;;;;;;;;;5050189;28;20067;-76
2022/07/28 08:03:48;;;;;;;0.13;0.10;;;;;;;;;;5053226;28;20430;-77
2022/07/28 08:06:13;;;;;;;0.52;0.47;;;;;;;;;;5048025;28;20078;-77
2022/07/28 08:08:41;;;;;;;1.48;0.80;;;;;;;;;;5053969;28;20028;-77
2022/07/28 08:11:06;;;;;;;0.75;0.28;;;;;;;;;;5053749;28;20092;-77
2022/07/28 08:13:36;;;;;;;0.52;0.52;;;;;;;;;;5053176;28;20029;-76
2022/07/28 08:16:02;;;;;;;1.48;0.95;;;;;;;;;;5049975;28;20061;-78
2022/07/28 08:18:28;;;;;;;0.98;0.30;;;;;;;;;;5052795;28;20398;-77
2022/07/28 08:20:56;;;;;;;0.70;0.20;;;;;;;;;;5053293;28;20059;-78
2022/07/28 08:23:24;;;;;;;0.25;0.25;;;;;;;;;;5047061;28;20036;-76
2022/07/28 08:25:50;;;;;;;0.20;0.20;;;;;;;;;;5052497;28;20029;-77
2022/07/28 08:28:15;;;;;;;0.03;0.03;;;;;;;;;;5049709;28;20088;-77
2022/07/28 08:30:40;;;;;;;1.48;0.60;;;;;;;;;;5051616;28;20474;-76
2022/07/28 08:33:06;;;;;;;3.25;1.55;;;;;;;;;;5052853;28;20017;-77
2022/07/28 08:35:34;;;;;;;0.85;0.63;;;;;;;;;;5057789;28;20052;-77
2022/07/28 08:38:00;;;;;;;1.15;0.82;;;;;;;;;;5053487;28;20036;-78
2022/07/28 08:40:25;;;;;;;0.10;0.10;;;;;;;;;;5033987;28;20037;-78
2022/07/28 08:43:13;;;;;;;0.20;0.20;;;;;;;;;;5052091;28;20031;-77
2022/07/28 08:45:38;;;;;;;0.40;0.40;;;;;;;;;;5063556;28;20619;-79
2022/07/28 08:48:05;;;;;;;2.63;0.60;;;;;;;;;;5051623;28;20029;-78
2022/07/28 08:50:35;;;;;;;0.20;0.20;;;;;;;;;;5050964;28;20029;-76
2022/07/28 08:53:00;;;;;;;0.35;0.10;;;;;;;;;;5036029;28;20041;-79
2022/07/28 08:55:28;;;;;;;0.10;0.10;;;;;;;;;;5039445;28;20027;-78
2022/07/28 08:57:55;;;;;;;2.13;0.45;;;;;;;;;;5055685;28;20060;-78
2022/07/28 09:00:22;;;;;;;0.13;0.13;;;;;;;;;;5056725;28;20111;-76
2022/07/28 09:02:51;;;;;;;0.88;0.20;;;;;;;;;;5055283;28;20040;-77
2022/07/28 09:05:19;;;;;;;0.20;0.20;;;;;;;;;;5056084;28;20033;-77
2022/07/28 09:07:48;;;;;;;0.17;0.17;;;;;;;;;;5057294;28;20048;-76
2022/07/28 09:10:14;;;;;;;0.60;0.55;;;;;;;;;;5054292;28;20063;-76
2022/07/28 09:12:41;;;;;;;1.38;0.30;;;;;;;;;;5056777;28;20042;-77
2022/07/28 09:15:08;;;;;;;0.20;0.10;;;;;;;;;;5056825;28;20347;-77
2022/07/28 09:17:34;;;;;;;1.25;0.30;;;;;;;;;;5056522;28;20025;-78
2022/07/28 09:20:00;;;;;;;0.20;0.20;;;;;;;;;;5054965;28;20025;-78
2022/07/28 09:22:26;;;;;;;0.20;0.20;;;;;;;;;;5053896;28;20364;-77
2022/07/28 09:24:52;;;;;;;0.20;0.10;;;;;;;;;;5055353;28;20465;-77
2022/07/28 09:27:17;;;;;;;0.30;0.30;;;;;;;;;;5039446;28;20112;-77
2022/07/28 09:29:48;;;;;;;1.00;0.32;;;;;;;;;;5036036;28;20368;-77
2022/07/28 09:32:18;;;;;;;0.80;0.30;;;;;;;;;;5054838;28;20032;-78
2022/07/28 09:35:30;;;;;;;0.10;0.10;;;;;;;;;;5053813;28;20338;-78
2022/07/28 09:37:58;;;;;;;0.20;0.20;;;;;;;;;;5050640;28;20511;-78
2022/07/28 09:40:27;;;;;;;0.28;0.20;;;;;;;;;;5050433;28;20052;-78
2022/07/28 09:42:57;;;;;;;0.20;0.20;;;;;;;;;;5037584;28;20079;-78
2022/07/28 09:45:26;;;;;;;0.63;0.30;;;;;;;;;;5055698;28;20093;-78
2022/07/28 09:48:11;;;;;;;0.25;0.22;;;;;;;;;;5053119;28;20036;-77
2022/07/28 09:50:38;;;;;;;1.00;0.73;;;;;;;;;;5055414;28;20097;-77
2022/07/28 09:53:28;;;;;;;0.10;0.10;;;;;;;;;;5053071;28;20057;-78
2022/07/28 09:56:02;;;;;;;0.55;0.40;;;;;;;;;;5052662;28;20048;-78
2022/07/28 09:58:28;;;;;;;0.10;0.10;;;;;;;;;;5038783;28;20020;-79
2022/07/28 10:01:08;;;;;;;1.65;0.57;;;;;;;;;;5054096;28;20025;-78
2022/07/28 10:03:37;;;;;;;0.25;0.25;;;;;;;;;;5065296;28;20033;-79
2022/07/28 10:06:28;;;;;;;0.32;0.30;;;;;;;;;;5055458;28;20043;-81
2022/07/28 10:08:59;;;;;;;2.75;0.10;;;;;;;;;;5055000;28;20020;-79
2022/07/28 10:11:26;;;;;;;0.10;0.10;;;;;;;;;;5049005;28;20119;-84
2022/07/28 10:14:07;;;;;;;0.17;0.17;;;;;;;;;;5052771;28;20369;-87
2022/07/28 10:16:34;;;;;;;0.77;0.68;;;;;;;;;;5035054;28;20094;-91
2022/07/28 10:19:05;;;;;;;0.25;0.25;;;;;;;;;;5055311;28;20461;-87
2022/07/28 10:21:32;;;;;;;0.13;0.13;;;;;;;;;;5039293;28;20029;-85
2022/07/28 10:24:03;;;;;;;0.10;0.10;;;;;;;;;;5055429;28;20025;-85
2022/07/28 10:26:37;;;;;;;4.50;0.47;;;;;;;;;;5034547;28;20032;-84
2022/07/28 10:29:06;;;;;;;0.43;0.35;;;;;;;;;;5055549;28;20063;-82
2022/07/28 10:32:16;;;;;;;3.85;0.30;;;;;;;;;;5053097;28;20056;-83
2022/07/28 10:34:49;;;;;;;0.30;0.25;;;;;;;;;;5048523;28;20033;-81
2022/07/28 10:37:21;;;;;;;0.10;0.10;;;;;;;;;;5050787;28;20110;-80
2022/07/28 10:39:56;;;;;;;0.52;0.22;;;;;;;;;;5048707;28;20025;-80
2022/07/28 10:42:22;;;;;;;0.00;0.00;;;;;;;;;;5037817;28;20036;-80
2022/07/28 10:44:48;;;;;;;0.10;0.10;;;;;;;;;;5053112;28;20347;-79
2022/07/28 10:47:15;;;;;;;0.40;0.40;;;;;;;;;;5054208;28;20029;-80
2022/07/28 10:49:42;;;;;;;0.63;0.50;;;;;;;;;;5054379;28;20103;-80
2022/07/28 10:52:08;;;;;;;0.32;0.10;;;;;;;;;;5053456;28;20037;-79
2022/07/28 10:54:40;;;;;;;0.25;0.25;;;;;;;;;;5053792;28;20472;-79
2022/07/28 10:57:08;;;;;;;0.00;0.00;;;;;;;;;;5037597;28;20021;-79
2022/07/28 11:00:08;;;;;;;0.52;0.38;;;;;;;;;;5053612;28;20098;-80
2022/07/28 11:02:49;;;;;;;0.22;0.20;;;;;;;;;;5054299;28;20450;-80
2022/07/28 11:05:37;;;;;;;0.25;0.13;;;;;;;;;;5054288;28;20100;-80
2022/07/28 11:08:07;;;;;;;0.35;0.20;;;;;;;;;;5054858;28;20492;-80
2022/07/28 11:10:47;;;;;;;0.50;0.40;;;;;;;;;;5053661;28;20350;-79
2022/07/28 11:13:29;;;;;;;0.63;0.30;;;;;;;;;;5054783;28;20017;-80
2022/07/28 11:15:57;;;;;;;0.20;0.20;;;;;;;;;;5053270;28;20135;-80
2022/07/28 11:18:24;;;;;;;0.65;0.55;;;;;;;;;;5054544;28;20021;-79
2022/07/28 11:20:55;;;;;;;0.10;0.10;;;;;;;;;;5053093;28;20052;-80
2022/07/28 11:23:46;;;;;;;0.30;0.30;;;;;;;;;;5053298;28;20048;-79
2022/07/28 11:26:23;;;;;;;0.13;0.13;;;;;;;;;;5051072;28;20040;-80
2022/07/28 11:29:09;;;;;;;0.20;0.20;;;;;;;;;;5054446;28;20021;-80
2022/07/28 11:31:46;;;;;;;0.13;0.13;;;;;;;;;;5054467;28;20035;-80
2022/07/28 11:34:22;;;;;;;0.50;0.30;;;;;;;;;;5054344;28;20037;-80
2022/07/28 11:37:02;;;;;;;0.95;0.55;;;;;;;;;;5054356;28;20431;-79
2022/07/28 11:39:29;;;;;;;0.13;0.13;;;;;;;;;;5054031;28;20075;-80
2022/07/28 11:41:55;;;;;;;0.30;0.30;;;;;;;;;;5054044;28;20021;-80
2022/07/28 11:44:31;;;;;;;0.57;0.30;;;;;;;;;;5050615;28;20465;-80
2022/07/28 11:47:18;;;;;;;0.20;0.20;;;;;;;;;;5051975;28;20029;-80
2022/07/28 11:49:46;;;;;;;0.57;0.50;;;;;;;;;;5047965;28;20021;-80
2022/07/28 11:52:12;;;;;;;0.30;0.30;;;;;;;;;;5036588;28;20025;-79
2022/07/28 11:54:39;;;;;;;0.20;0.20;;;;;;;;;;5053982;28;20024;-80
2022/07/28 11:57:08;;;;;;;0.25;0.25;;;;;;;;;;5053447;28;20108;-80
2022/07/28 11:59:48;;;;;;;0.50;0.50;;;;;;;;;;5037069;28;20020;-80
2022/07/28 12:02:23;;;;;;;1.05;0.68;;;;;;;;;;5053238;28;20024;-81
2022/07/28 12:04:57;;;;;;;0.20;0.20;;;;;;;;;;5052235;28;20091;-80
2022/07/28 12:07:31;;;;;;;1.20;0.40;;;;;;;;;;5054295;28;20025;-80
2022/07/28 12:10:00;;;;;;;0.20;0.20;;;;;;;;;;5053404;28;20082;-80
2022/07/28 12:12:29;;;;;;;0.40;0.40;;;;;;;;;;5053294;28;20343;-79
2022/07/28 12:14:55;;;;;;;0.40;0.22;;;;;;;;;;5054063;28;20101;-80
2022/07/28 12:17:22;;;;;;;0.22;0.20;;;;;;;;;;5054438;28;20215;-80
2022/07/28 12:19:52;;;;;;;0.47;0.20;;;;;;;;;;5052679;28;20490;-80
2022/07/28 12:22:18;;;;;;;0.20;0.20;;;;;;;;;;5052819;28;20032;-81
2022/07/28 12:24:43;;;;;;;0.70;0.50;;;;;;;;;;5052974;28;20022;-80
2022/07/28 12:27:10;;;;;;;0.20;0.20;;;;;;;;;;5055713;28;20025;-80
2022/07/28 12:29:38;;;;;;;0.20;0.20;;;;;;;;;;5057950;28;20017;-80
2022/07/28 12:32:07;;;;;;;0.17;0.17;;;;;;;;;;5056922;28;20055;-80
2022/07/28 12:34:34;;;;;;;0.73;0.73;;;;;;;;;;5052898;28;20030;-81
2022/07/28 12:37:02;;;;;;;2.53;0.73;;;;;;;;;;5036103;28;20029;-80
2022/07/28 12:39:32;;;;;;;0.63;0.30;;;;;;;;;;5038944;28;20086;-80
2022/07/28 12:42:11;;;;;;;0.30;0.30;;;;;;;;;;5052404;28;20071;-77
2022/07/28 12:44:42;;;;;;;1.75;0.90;;;;;;;;;;5053611;28;20032;-80
2022/07/28 12:47:43;;;;;;;1.45;0.75;;;;;;;;;;5051924;28;20439;-79
2022/07/28 12:50:12;;;;;;;0.13;0.13;;;;;;;;;;5048732;28;20095;-78
2022/07/28 12:52:41;;;;;;;0.32;0.32;;;;;;;;;;5050364;28;20086;-78
2022/07/28 12:55:24;;;;;;;0.30;0.30;;;;;;;;;;5046484;28;20082;-81
2022/07/28 12:57:52;;;;;;;1.02;0.10;;;;;;;;;;5051333;28;20029;-80
2022/07/28 13:00:24;;;;;;;0.20;0.20;;;;;;;;;;5049664;28;20025;-79
2022/07/28 13:02:51;;;;;;;1.17;0.30;;;;;;;;;;5031598;28;20022;-77
2022/07/28 13:08:24;;;;;;;0.30;0.30;;;;;;;;;;5056397;28;20404;-82
2022/07/28 13:10:52;;;;;;;0.40;0.30;;;;;;;;;;5037079;28;20094;-80
2022/07/28 13:13:20;;;;;;;0.70;0.43;;;;;;;;;;5051410;28;20027;-80
2022/07/28 13:16:14;;;;;;;0.38;0.20;;;;;;;;;;5038288;28;20036;-79
2022/07/28 13:18:45;;;;;;;1.08;0.45;;;;;;;;;;5056253;28;20028;-79
2022/07/28 13:21:12;;;;;;;1.65;0.43;;;;;;;;;;5037293;28;20123;-79
2022/07/28 13:23:40;;;;;;;2.92;0.52;;;;;;;;;;5036697;28;20662;-80
2022/07/28 13:26:10;;;;;;;2.47;0.95;;;;;;;;;;5055913;28;20020;-78
2022/07/28 13:28:35;;;;;;;0.60;0.32;;;;;;;;;;5055915;28;20580;-80
2022/07/28 13:31:01;;;;;;;0.40;0.40;;;;;;;;;;5073748;28;20040;-79
2022/07/28 13:33:27;;;;;;;0.20;0.20;;;;;;;;;;5036160;28;20026;-78
2022/07/28 13:35:52;;;;;;;0.98;0.77;;;;;;;;;;5039889;28;20110;-83
2022/07/28 13:38:17;;;;;;;0.45;0.20;;;;;;;;;;5036463;28;20013;-81
2022/07/28 13:40:43;;;;;;;0.32;0.32;;;;;;;;;;5054033;28;20056;-80
2022/07/28 13:43:11;;;;;;;0.10;0.10;;;;;;;;;;5048044;28;20427;-79
2022/07/28 13:45:37;;;;;;;0.50;0.50;;;;;;;;;;5056164;28;20040;-82
2022/07/28 13:48:03;;;;;;;0.80;0.22;;;;;;;;;;5057141;28;20064;-78
2022/07/28 13:50:30;;;;;;;0.20;0.20;;;;;;;;;;5049674;28;20033;-78
2022/07/28 13:52:56;;;;;;;0.73;0.55;;;;;;;;;;5056301;28;20048;-80
2022/07/28 13:55:21;;;;;;;0.52;0.30;;;;;;;;;;5034777;28;20060;-79
2022/07/28 13:57:47;;;;;;;0.70;0.70;;;;;;;;;;5053805;28;20058;-80
2022/07/28 14:00:19;;;;;;;0.40;0.40;;;;;;;;;;5049868;28;20051;-80
2022/07/28 14:02:47;;;;;;;3.33;0.65;;;;;;;;;;5029039;28;20021;-80
2022/07/28 14:05:13;;;;;;;5.05;0.50;;;;;;;;;;5045124;28;20567;-82
2022/07/28 14:07:39;;;;;;;2.35;0.55;;;;;;;;;;5052353;28;20021;-80
2022/07/28 14:10:07;;;;;;;0.47;0.47;;;;;;;;;;5048139;28;20021;-80
2022/07/28 14:12:32;;;;;;;0.30;0.30;;;;;;;;;;5046193;28;20055;-80
2022/07/28 14:15:00;;;;;;;0.50;0.40;;;;;;;;;;5053125;28;20049;-80
2022/07/28 14:17:25;;;;;;;0.25;0.25;;;;;;;;;;5028173;28;20520;-79
2022/07/28 14:19:51;;;;;;;0.93;0.60;;;;;;;;;;5045899;28;20112;-81
2022/07/28 14:22:16;;;;;;;0.20;0.20;;;;;;;;;;5052022;28;20062;-79
2022/07/28 14:24:41;;;;;;;0.30;0.30;;;;;;;;;;5053637;28;20021;-80
2022/07/28 14:27:07;;;;;;;0.17;0.17;;;;;;;;;;5051038;28;20439;-79
2022/07/28 14:29:32;;;;;;;0.30;0.30;;;;;;;;;;5054130;28;20159;-80
2022/07/28 14:31:58;;;;;;;0.20;0.20;;;;;;;;;;5050197;28;20040;-79
2022/07/28 14:34:26;;;;;;;0.77;0.38;;;;;;;;;;5054682;28;20478;-80
2022/07/28 14:36:55;;;;;;;0.15;0.15;;;;;;;;;;5038554;28;20040;-80
2022/07/28 14:39:21;;;;;;;1.25;0.38;;;;;;;;;;5049685;28;20331;-80
2022/07/28 14:41:46;;;;;;;0.20;0.20;;;;;;;;;;5045805;28;20017;-80
2022/07/28 14:44:11;;;;;;;0.30;0.20;;;;;;;;;;5029652;28;20021;-80
2022/07/28 14:46:39;;;;;;;0.10;0.10;;;;;;;;;;5046298;28;20043;-80
2022/07/28 14:49:07;;;;;;;0.90;0.40;;;;;;;;;;5044964;28;20028;-79
2022/07/28 14:51:32;;;;;;;0.10;0.10;;;;;;;;;;5049402;28;20025;-80
2022/07/28 14:53:58;;;;;;;0.57;0.40;;;;;;;;;;5051107;28;20024;-79
2022/07/28 14:56:26;;;;;;;1.63;0.75;;;;;;;;;;5046774;28;20110;-80